Time;durP1;ratioP1;P1;durP2;ratioP2;P2;SDS_P1;SDS_P2;PMS_P1;PMS_P2;Temp;Humidity;BMP_temperature;BMP_pressure;BME280_temperature;BME280_humidity;BME280_pressure;Samples;Min_cycle;Max_cycle;Signal;HPM_P1;HPM_P2
2021/11/09 00:00:34;;;;;;;26.48;6.90;;;;;;;4.43;100.00;102535.69;5038418;28;20537;-76
2021/11/09 00:03:05;;;;;;;27.25;7.78;;;;;;;4.45;100.00;102539.25;5029738;28;20076;-74
2021/11/09 00:05:45;;;;;;;17.77;6.88;;;;;;;4.35;100.00;102543.44;5037390;28;20053;-74
2021/11/09 00:08:18;;;;;;;16.02;6.63;;;;;;;4.44;100.00;102537.44;5032645;28;20052;-74
2021/11/09 00:10:46;;;;;;;19.80;7.30;;;;;;;4.37;100.00;102533.78;5030644;28;20480;-75
2021/11/09 00:13:14;;;;;;;24.08;8.07;;;;;;;4.51;100.00;102530.53;5038574;28;20426;-75
2021/11/09 00:15:43;;;;;;;24.45;7.28;;;;;;;4.51;100.00;102533.19;5029386;28;20057;-75
2021/11/09 00:18:11;;;;;;;20.50;7.63;;;;;;;4.49;100.00;102533.16;5036983;28;20056;-75
2021/11/09 00:20:42;;;;;;;17.35;6.38;;;;;;;4.34;100.00;102533.72;5030561;28;20390;-75
2021/11/09 00:23:11;;;;;;;18.10;6.75;;;;;;;4.39;100.00;102531.19;5034331;28;20345;-75
2021/11/09 00:25:40;;;;;;;22.50;8.45;;;;;;;4.30;100.00;102534.53;5030892;28;20136;-74
2021/11/09 00:28:09;;;;;;;16.40;6.00;;;;;;;4.22;100.00;102536.09;5027629;28;20617;-74
2021/11/09 00:30:38;;;;;;;17.73;8.18;;;;;;;4.14;100.00;102541.25;5036757;28;20051;-74
2021/11/09 00:33:07;;;;;;;20.58;6.60;;;;;;;4.14;100.00;102545.63;5030552;28;20581;-74
2021/11/09 00:35:35;;;;;;;16.02;6.35;;;;;;;4.09;100.00;102535.84;5036913;28;20167;-74
2021/11/09 00:38:08;;;;;;;19.42;7.32;;;;;;;4.30;100.00;102539.81;5034231;28;20103;-74
2021/11/09 00:40:39;;;;;;;22.40;8.03;;;;;;;4.32;100.00;102538.09;5029088;28;20626;-74
2021/11/09 00:43:09;;;;;;;19.17;7.28;;;;;;;4.35;100.00;102532.00;5039024;28;20082;-74
2021/11/09 00:45:37;;;;;;;19.95;7.00;;;;;;;4.32;100.00;102524.88;5030007;28;20091;-74
2021/11/09 00:48:06;;;;;;;29.27;9.80;;;;;;;4.56;100.00;102524.47;5033928;28;20053;-74
2021/11/09 00:50:35;;;;;;;24.88;9.60;;;;;;;4.69;100.00;102533.53;5030166;28;20081;-74
2021/11/09 00:53:05;;;;;;;23.90;10.48;;;;;;;4.84;100.00;102528.53;5025910;28;20090;-74
2021/11/09 00:55:33;;;;;;;25.40;8.52;;;;;;;4.71;100.00;102529.16;5036290;28;20788;-74
2021/11/09 00:58:01;;;;;;;28.30;9.77;;;;;;;4.53;100.00;102529.72;5029303;28;20474;-75
2021/11/09 01:00:33;;;;;;;29.25;8.77;;;;;;;4.52;100.00;102533.22;5035985;28;20528;-75
2021/11/09 01:03:04;;;;;;;22.58;8.65;;;;;;;4.42;100.00;102529.47;5028021;28;20056;-75
2021/11/09 01:05:33;;;;;;;24.02;9.30;;;;;;;4.47;100.00;102534.88;5033570;28;20123;-68
2021/11/09 01:08:03;;;;;;;19.10;7.18;;;;;;;4.37;100.00;102530.25;5035391;28;20557;-68
2021/11/09 01:10:42;;;;;;;24.15;9.20;;;;;;;4.55;100.00;102538.56;5028214;28;20125;-75
2021/11/09 01:13:11;;;;;;;21.95;8.55;;;;;;;4.41;100.00;102535.66;5036078;28;20056;-74
2021/11/09 01:15:48;;;;;;;20.58;8.57;;;;;;;4.32;100.00;102531.91;5028154;28;20236;-75
2021/11/09 01:18:18;;;;;;;28.85;10.02;;;;;;;4.29;100.00;102538.00;5036812;28;20049;-74
2021/11/09 01:20:46;;;;;;;24.70;9.20;;;;;;;4.17;100.00;102537.75;5028952;28;20049;-74
2021/11/09 01:23:16;;;;;;;33.40;10.77;;;;;;;4.27;100.00;102530.09;5029888;28;20275;-75
2021/11/09 01:25:45;;;;;;;16.83;7.60;;;;;;;4.17;100.00;102540.41;5034746;28;20507;-75
2021/11/09 01:28:16;;;;;;;26.70;9.73;;;;;;;4.18;100.00;102529.88;5028890;28;20065;-75
2021/11/09 01:30:45;;;;;;;23.50;8.00;;;;;;;4.22;100.00;102528.19;5033237;28;20402;-75
2021/11/09 01:33:15;;;;;;;18.17;8.95;;;;;;;4.17;100.00;102532.47;5030253;28;20049;-75
2021/11/09 01:35:43;;;;;;;21.80;8.93;;;;;;;4.20;100.00;102529.91;5029199;28;20076;-75
2021/11/09 01:38:11;;;;;;;19.25;8.52;;;;;;;4.20;100.00;102529.91;5036685;28;20094;-75
2021/11/09 01:40:41;;;;;;;21.88;8.38;;;;;;;4.23;100.00;102532.63;5026432;28;20107;-74
2021/11/09 01:43:11;;;;;;;26.58;9.07;;;;;;;4.27;100.00;102537.09;5033452;28;20048;-74
2021/11/09 01:45:39;;;;;;;24.30;9.82;;;;;;;4.34;100.00;102523.16;5029469;28;20485;-75
2021/11/09 01:48:08;;;;;;;27.70;10.02;;;;;;;4.24;100.00;102530.00;5034962;28;20052;-75
2021/11/09 01:50:38;;;;;;;31.50;10.75;;;;;;;4.23;100.00;102525.56;5030112;28;20045;-75
2021/11/09 01:53:08;;;;;;;24.85;9.52;;;;;;;4.20;100.00;102533.44;5026232;28;20060;-75
2021/11/09 01:55:37;;;;;;;27.33;10.13;;;;;;;4.19;100.00;102521.09;5034845;28;20084;-75
2021/11/09 01:58:07;;;;;;;26.27;10.05;;;;;;;4.16;100.00;102522.78;5029700;28;20047;-74
2021/11/09 02:00:40;;;;;;;24.98;8.82;;;;;;;4.11;100.00;102530.59;5033657;28;20156;-74
2021/11/09 02:03:08;;;;;;;;;;;;;;;4.09;100.00;102527.03;5030521;28;20334;-74
2021/11/09 02:05:36;;;;;;;25.58;10.15;;;;;;;4.19;100.00;102522.81;5028849;28;19921;-75
2021/11/09 02:08:05;;;;;;;26.95;10.82;;;;;;;4.22;100.00;102520.25;5035293;28;20383;-75
2021/11/09 02:10:36;;;;;;;27.25;10.52;;;;;;;4.26;100.00;102512.44;5027068;28;20060;-75
2021/11/09 02:13:05;;;;;;;27.50;10.55;;;;;;;4.22;100.00;102510.59;5033020;28;20449;-74
2021/11/09 02:15:34;;;;;;;24.08;10.80;;;;;;;4.16;100.00;102509.56;5029791;28;20055;-75
2021/11/09 02:18:05;;;;;;;29.77;11.05;;;;;;;4.19;100.00;102499.97;5026855;28;20264;-74
2021/11/09 02:20:33;;;;;;;28.20;11.38;;;;;;;4.21;100.00;102513.22;5035020;28;20606;-74
2021/11/09 02:23:05;;;;;;;28.38;11.18;;;;;;;4.21;100.00;102500.00;5027391;28;20136;-68
2021/11/09 02:25:34;;;;;;;26.35;10.43;;;;;;;4.21;100.00;102503.53;5031678;28;20053;-68
2021/11/09 02:28:04;;;;;;;27.90;11.65;;;;;;;4.20;100.00;102508.78;5032267;28;20049;-74
2021/11/09 02:30:32;;;;;;;24.35;11.80;;;;;;;4.22;100.00;102507.03;5033577;28;20148;-74
2021/11/09 02:33:01;;;;;;;36.97;12.82;;;;;;;4.20;100.00;102514.06;5027693;28;20106;-75
2021/11/09 02:35:29;;;;;;;27.08;12.07;;;;;;;4.24;100.00;102513.25;5030131;28;20076;-75
2021/11/09 02:37:59;;;;;;;33.42;12.93;;;;;;;4.28;100.00;102520.41;5035948;28;20074;-75
2021/11/09 02:40:29;;;;;;;34.72;12.13;;;;;;;4.18;100.00;102523.72;5027367;28;20558;-75
2021/11/09 02:43:00;;;;;;;30.13;12.40;;;;;;;4.21;100.00;102523.78;5031513;28;20770;-75
2021/11/09 02:45:35;;;;;;;26.58;14.15;;;;;;;4.21;100.00;102522.00;5028566;28;20500;-75
2021/11/09 02:48:07;;;;;;;33.15;13.00;;;;;;;4.17;100.00;102514.91;5028164;28;20155;-69
2021/11/09 02:50:37;;;;;;;33.35;13.00;;;;;;;4.14;100.00;102511.28;5034422;28;20494;-69
2021/11/09 02:53:09;;;;;;;36.00;13.25;;;;;;;4.16;100.00;102512.22;5027127;28;20535;-69
2021/11/09 02:55:41;;;;;;;28.52;12.40;;;;;;;4.16;100.00;102499.88;5035849;28;20091;-76
2021/11/09 02:58:20;;;;;;;27.73;12.68;;;;;;;4.16;100.00;102497.25;5027286;28;20562;-76
2021/11/09 03:01:01;;;;;;;29.63;12.23;;;;;;;4.17;100.00;102504.31;5029609;28;20075;-76
2021/11/09 03:03:34;;;;;;;29.55;13.80;;;;;;;4.24;100.00;102498.31;5035414;28;20053;-73
2021/11/09 03:06:15;;;;;;;28.80;13.07;;;;;;;4.26;100.00;102507.16;5026709;28;20088;-76
2021/11/09 03:08:47;;;;;;;28.58;13.43;;;;;;;4.20;100.00;102508.78;5032721;28;20306;-76
2021/11/09 03:11:17;;;;;;;39.92;14.60;;;;;;;4.18;100.00;102507.84;5029706;28;20559;-75
2021/11/09 03:13:48;;;;;;;29.63;13.30;;;;;;;4.12;100.00;102508.63;5024681;28;20481;-75
2021/11/09 03:16:16;;;;;;;26.98;12.25;;;;;;;4.14;100.00;102508.63;5036780;28;20110;-76
2021/11/09 03:18:49;;;;;;;32.30;12.50;;;;;;;4.17;100.00;102503.41;5033993;28;20048;-75
2021/11/09 03:40:32;;;;;;;27.75;11.88;;;;;;;3.97;100.00;102537.31;5031694;28;20227;-68
2021/11/09 03:45:49;;;;;;;31.58;12.65;;;;;;;3.90;100.00;102531.03;5030030;28;20144;-68
2021/11/09 03:48:18;;;;;;;52.15;18.02;;;;;;;4.00;100.00;102540.03;5030347;28;20049;-68
2021/11/09 03:50:49;;;;;;;52.55;19.17;;;;;;;4.05;100.00;102547.22;5038093;28;20075;-68
2021/11/09 03:53:20;;;;;;;61.05;22.15;;;;;;;4.17;100.00;102548.34;5029503;28;20488;-68
2021/11/09 03:56:13;;;;;;;64.53;22.15;;;;;;;4.22;100.00;102544.03;5032475;28;20048;-68
2021/11/09 03:58:45;;;;;;;69.15;21.52;;;;;;;4.36;100.00;102524.09;5037069;28;20137;-68
2021/11/09 04:01:18;;;;;;;61.33;22.60;;;;;;;4.50;100.00;102516.44;5030383;28;20881;-68
2021/11/09 04:04:11;;;;;;;73.05;22.75;;;;;;;4.73;100.00;102518.63;5032479;28;20444;-68
2021/11/09 04:06:42;;;;;;;70.90;24.75;;;;;;;4.91;100.00;102512.78;5030830;28;20077;-68
2021/11/09 04:09:16;;;;;;;65.30;23.13;;;;;;;4.98;100.00;102518.22;5028114;28;20059;-68
2021/11/09 04:11:51;;;;;;;58.05;19.73;;;;;;;4.86;100.00;102518.00;5036996;28;20045;-68
2021/11/09 04:14:28;;;;;;;58.40;20.92;;;;;;;4.96;100.00;102516.41;5029462;28;20313;-68
2021/11/09 04:17:01;;;;;;;56.00;19.80;;;;;;;4.95;100.00;102520.78;5036024;28;20049;-68
2021/11/09 04:19:41;;;;;;;56.42;19.13;;;;;;;5.03;100.00;102520.94;5036288;28;20071;-68
2021/11/09 04:28:03;;;;;;;43.47;16.88;;;;;;;4.85;100.00;102530.34;4998602;28;20512;-74
2021/11/09 04:53:19;;;;;;;37.85;13.27;;;;;;;4.99;100.00;102529.72;5005125;28;20052;-70
2021/11/09 05:01:36;;;;;;;33.13;13.48;;;;;;;5.12;100.00;102525.50;5006440;28;20490;-68
2021/11/09 05:09:35;;;;;;;40.77;14.77;;;;;;;5.21;100.00;102547.75;4960554;28;20061;-70
2021/11/09 05:12:04;;;;;;;32.22;13.77;;;;;;;5.18;100.00;102544.16;5007212;28;20375;-69
2021/11/09 05:14:32;;;;;;;36.78;15.82;;;;;;;5.30;100.00;102546.13;5013111;28;20501;-69
2021/11/09 05:17:01;;;;;;;32.63;13.50;;;;;;;5.37;100.00;102545.34;5007338;28;20490;-70
2021/11/09 05:19:29;;;;;;;37.90;15.38;;;;;;;5.45;100.00;102553.41;5015111;28;20104;-68
2021/11/09 05:21:58;;;;;;;38.28;14.25;;;;;;;5.55;100.00;102544.75;5004909;28;20050;-70
2021/11/09 05:24:26;;;;;;;41.83;16.77;;;;;;;5.63;100.00;102543.09;5013744;28;20053;-69
2021/11/09 05:26:53;;;;;;;44.28;17.88;;;;;;;5.66;100.00;102548.47;5008771;28;20046;-67
2021/11/09 05:29:22;;;;;;;53.92;19.55;;;;;;;5.64;100.00;102547.56;5005896;28;20057;-69
2021/11/09 05:31:56;;;;;;;61.53;20.70;;;;;;;5.71;100.00;102541.47;5014530;28;20249;-69
2021/11/09 05:34:26;;;;;;;;;;;;;;;5.73;100.00;102550.31;5007813;28;20137;-69
2021/11/09 05:36:57;;;;;;;53.88;18.25;;;;;;;5.75;100.00;102551.22;5014668;28;19999;-69
2021/11/09 05:39:32;;;;;;;63.50;21.08;;;;;;;5.78;100.00;102550.41;5007621;28;20097;-68
2021/11/09 05:42:01;;;;;;;57.08;19.75;;;;;;;5.79;100.00;102555.72;5006839;28;20439;-69
2021/11/09 05:44:28;;;;;;;59.13;19.55;;;;;;;5.84;100.00;102550.50;5003146;28;20057;-69
2021/11/09 05:46:57;;;;;;;64.03;21.33;;;;;;;5.89;100.00;102551.47;4991838;28;20141;-68
2021/11/09 05:49:25;;;;;;;52.00;18.45;;;;;;;5.88;100.00;102551.44;4996645;28;20133;-69
2021/11/09 05:51:53;;;;;;;59.35;21.88;;;;;;;5.98;100.00;102564.00;4999765;28;20066;-69
2021/11/09 05:54:21;;;;;;;60.58;19.85;;;;;;;5.98;100.00;102564.88;4998318;28;20478;-69
2021/11/09 05:56:50;;;;;;;64.32;19.88;;;;;;;6.02;100.00;102564.91;4994408;28;20638;-74
2021/11/09 05:59:19;;;;;;;55.38;17.65;;;;;;;6.03;100.00;102559.66;4994098;28;20062;-74
2021/11/09 06:01:47;;;;;;;55.72;20.55;;;;;;;6.05;100.00;102564.97;4998255;28;20109;-74
2021/11/09 06:04:16;;;;;;;48.10;18.52;;;;;;;6.08;100.00;102560.59;4997385;28;20502;-75
2021/11/09 06:06:44;;;;;;;48.38;16.17;;;;;;;6.07;100.00;102563.22;4999329;28;20152;-74
2021/11/09 06:09:12;;;;;;;45.15;17.42;;;;;;;6.11;100.00;102559.72;4995203;28;20054;-74
2021/11/09 06:11:39;;;;;;;42.88;17.27;;;;;;;6.12;100.00;102558.88;4995113;28;20096;-74
2021/11/09 06:14:09;;;;;;;50.97;15.93;;;;;;;6.12;100.00;102566.84;5000828;28;20119;-74
2021/11/09 06:16:38;;;;;;;43.85;15.85;;;;;;;6.11;100.00;102570.34;4990705;28;20057;-74
2021/11/09 06:19:07;;;;;;;49.40;17.65;;;;;;;6.10;100.00;102574.75;4998767;28;20050;-74
2021/11/09 06:21:35;;;;;;;47.55;17.05;;;;;;;6.11;100.00;102575.63;4995390;28;20073;-74
2021/11/09 06:24:03;;;;;;;44.47;17.13;;;;;;;6.11;100.00;102573.00;4997644;28;20077;-74
2021/11/09 06:26:31;;;;;;;42.80;15.02;;;;;;;6.10;100.00;102574.75;4997498;28;20054;-73
2021/11/09 06:29:03;;;;;;;47.35;16.48;;;;;;;6.12;100.00;102575.66;4993550;28;20056;-73
2021/11/09 06:31:32;;;;;;;50.45;18.75;;;;;;;6.12;100.00;102580.97;4997140;28;20486;-75
2021/11/09 06:34:00;;;;;;;49.20;17.95;;;;;;;6.13;100.00;102582.75;4993562;28;20042;-74
2021/11/09 06:36:28;;;;;;;48.95;16.95;;;;;;;6.14;100.00;102578.34;4997429;28;20735;-74
2021/11/09 06:38:55;;;;;;;45.60;18.38;;;;;;;6.14;100.00;102579.22;4992821;28;20523;-74
2021/11/09 06:41:23;;;;;;;55.75;20.05;;;;;;;6.14;100.00;102581.88;4989396;28;20058;-74
2021/11/09 06:43:51;;;;;;;64.03;20.92;;;;;;;6.21;100.00;102593.44;4999050;28;20141;-74
2021/11/09 06:46:20;;;;;;;52.97;19.88;;;;;;;6.20;100.00;102591.69;4992749;28;20482;-75
2021/11/09 06:48:50;;;;;;;50.00;18.05;;;;;;;6.22;100.00;102592.59;4999730;28;20133;-74
2021/11/09 06:51:19;;;;;;;60.13;21.00;;;;;;;6.19;100.00;102589.91;4991941;28;20049;-74
2021/11/09 06:53:46;;;;;;;57.25;18.65;;;;;;;6.23;100.00;102596.13;4997533;28;20045;-74
2021/11/09 06:56:15;;;;;;;49.00;17.35;;;;;;;6.26;100.00;102593.53;4991639;28;20062;-75
2021/11/09 06:58:43;;;;;;;46.63;18.55;;;;;;;6.26;100.00;102598.81;4990518;28;20053;-74
2021/11/09 07:01:11;;;;;;;54.00;18.55;;;;;;;6.26;100.00;102605.00;4997977;28;20104;-74
2021/11/09 07:03:39;;;;;;;56.17;19.20;;;;;;;6.33;100.00;102606.00;4991404;28;20132;-74
2021/11/09 07:06:09;;;;;;;47.17;17.00;;;;;;;6.34;100.00;102611.31;4997036;28;20050;-74
2021/11/09 07:08:37;;;;;;;51.33;18.02;;;;;;;6.38;100.00;102611.38;4964990;28;20164;-74
2021/11/09 07:11:05;;;;;;;47.72;17.98;;;;;;;6.41;100.00;102606.09;4992272;28;20133;-74
2021/11/09 07:13:34;;;;;;;47.83;19.33;;;;;;;6.37;100.00;102610.47;4998411;28;20046;-75
2021/11/09 07:16:04;;;;;;;40.72;17.38;;;;;;;6.42;100.00;102610.53;4992150;28;20145;-74
2021/11/09 07:18:32;;;;;;;42.33;18.95;;;;;;;6.44;100.00;102619.41;4998785;28;20050;-74
2021/11/09 07:21:00;;;;;;;55.83;19.33;;;;;;;6.46;100.00;102625.63;4992936;28;20185;-74
2021/11/09 07:23:30;;;;;;;55.65;18.05;;;;;;;6.47;100.00;102630.03;4997640;28;20505;-74
2021/11/09 07:25:58;;;;;;;37.67;16.45;;;;;;;6.49;100.00;102625.69;4991860;28;20498;-74
2021/11/09 07:28:25;;;;;;;51.15;17.08;;;;;;;6.53;100.00;102632.78;4990231;28;20050;-74
2021/11/09 07:30:59;;;;;;;38.55;17.17;;;;;;;6.54;100.00;102630.16;4996963;28;20140;-75
2021/11/09 07:33:27;;;;;;;42.90;17.13;;;;;;;6.60;100.00;102639.06;4992678;28;20077;-74
2021/11/09 07:35:55;;;;;;;58.05;19.23;;;;;;;6.61;100.00;102639.09;4997391;28;20073;-75
2021/11/09 07:38:23;;;;;;;48.33;20.50;;;;;;;6.65;100.00;102635.59;4991359;28;20101;-74
2021/11/09 07:40:54;;;;;;;58.80;18.73;;;;;;;6.69;100.00;102644.47;4991956;28;20089;-75
2021/11/09 07:43:23;;;;;;;51.08;18.58;;;;;;;6.72;100.00;102644.53;4995450;28;20054;-74
2021/11/09 07:45:50;;;;;;;46.92;17.30;;;;;;;6.76;100.00;102646.34;4988850;28;20057;-75
2021/11/09 07:48:19;;;;;;;41.85;16.83;;;;;;;6.77;100.00;102655.19;4996709;28;20057;-75
2021/11/09 07:50:50;;;;;;;41.50;16.92;;;;;;;6.76;100.00;102653.41;4990173;28;20060;-75
2021/11/09 07:53:19;;;;;;;49.67;18.85;;;;;;;6.78;100.00;102654.34;4991897;28;20060;-75
2021/11/09 07:55:50;;;;;;;46.40;16.60;;;;;;;6.86;100.00;102650.00;4988714;28;20169;-74
2021/11/09 07:58:29;;;;;;;45.58;16.95;;;;;;;6.88;100.00;102656.25;4990217;28;20380;-74
2021/11/09 08:01:07;;;;;;;46.63;18.83;;;;;;;6.89;100.00;102660.66;4998208;28;20053;-74
2021/11/09 08:03:38;;;;;;;45.78;16.65;;;;;;;6.94;100.00;102652.75;4990267;28;20088;-68
2021/11/09 08:06:13;;;;;;;42.78;16.60;;;;;;;6.97;100.00;102659.00;4993806;28;20046;-68
2021/11/09 08:08:52;;;;;;;47.65;16.83;;;;;;;7.01;100.00;102663.44;4991948;28;20526;-68
2021/11/09 08:11:21;;;;;;;40.78;16.20;;;;;;;7.07;100.00;102662.66;4987561;28;20119;-68
2021/11/09 08:13:51;;;;;;;42.60;18.30;;;;;;;7.08;100.00;102657.38;4995759;28;20088;-68
2021/11/09 08:16:19;;;;;;;39.97;16.85;;;;;;;7.11;100.00;102654.72;4990934;28;20057;-68
2021/11/09 08:18:48;;;;;;;37.88;16.55;;;;;;;7.17;100.00;102659.22;4994468;28;20353;-67
2021/11/09 08:21:16;;;;;;;43.05;16.88;;;;;;;7.26;100.00;102650.47;4990001;28;20057;-68
2021/11/09 08:23:48;;;;;;;44.65;17.48;;;;;;;7.27;100.00;102652.22;4990079;28;20299;-68
2021/11/09 08:26:17;;;;;;;54.42;18.55;;;;;;;7.35;100.00;102658.50;4993717;28;20057;-68
2021/11/09 08:28:45;;;;;;;42.15;16.98;;;;;;;7.39;100.00;102657.69;4991301;28;20054;-68
2021/11/09 08:31:17;;;;;;;43.65;18.08;;;;;;;7.43;100.00;102653.28;4994434;28;20108;-68
2021/11/09 08:33:45;;;;;;;43.33;16.10;;;;;;;7.47;100.00;102655.09;4990466;28;20139;-68
2021/11/09 08:36:15;;;;;;;46.15;17.13;;;;;;;7.51;100.00;102659.56;4993092;28;20057;-68
2021/11/09 08:38:45;;;;;;;43.25;17.77;;;;;;;7.57;100.00;102653.41;4988803;28;20054;-68
2021/11/09 08:41:13;;;;;;;45.67;16.98;;;;;;;7.64;100.00;102652.59;4988221;28;20054;-68
2021/11/09 08:43:53;;;;;;;48.33;17.35;;;;;;;7.65;100.00;102649.06;4992999;28;20698;-68
2021/11/09 08:46:25;;;;;;;42.20;16.50;;;;;;;7.74;100.00;102657.13;4990561;28;20064;-68
2021/11/09 08:48:54;;;;;;;40.75;16.65;;;;;;;7.74;100.00;102654.44;4989139;28;20085;-69
2021/11/09 08:51:23;;;;;;;44.70;17.67;;;;;;;7.85;100.00;102652.78;4994426;28;20144;-69
2021/11/09 08:53:56;;;;;;;60.75;17.05;;;;;;;7.92;100.00;102661.69;4988091;28;20177;-68
2021/11/09 08:56:49;;;;;;;47.08;17.17;;;;;;;7.94;100.00;102656.41;4996075;28;20140;-68
2021/11/09 09:04:51;;;;;;;47.42;17.70;;;;;;;8.25;100.00;102657.50;4995901;28;20659;-68
2021/11/09 09:07:19;;;;;;;54.15;17.95;;;;;;;8.21;100.00;102656.59;4988401;28;20140;-68
2021/11/09 09:09:47;;;;;;;48.60;17.73;;;;;;;8.26;100.00;102651.31;4991069;28;20133;-69
2021/11/09 09:12:15;;;;;;;51.38;16.42;;;;;;;8.26;100.00;102653.06;4996600;28;20463;-68
2021/11/09 09:14:43;;;;;;;40.15;16.30;;;;;;;8.30;100.00;102660.19;4989828;28;20057;-69
2021/11/09 09:17:12;;;;;;;44.65;16.83;;;;;;;8.36;100.00;102666.44;4996507;28;20463;-69
2021/11/09 09:19:42;;;;;;;49.85;16.60;;;;;;;8.39;100.00;102665.56;4989753;28;20141;-69
2021/11/09 09:22:14;;;;;;;42.67;15.85;;;;;;;8.40;100.00;102672.69;4999345;28;20387;-69
2021/11/09 09:24:48;;;;;;;47.55;16.55;;;;;;;8.47;100.00;102673.63;4993087;28;20159;-75
2021/11/09 09:27:25;;;;;;;39.90;14.35;;;;;;;8.48;100.00;102672.75;4998203;28;20081;-75
2021/11/09 09:54:50;;;;;;;39.13;13.98;;;;;;;8.76;100.00;102681.78;4991418;28;20042;-76
2021/11/09 09:57:19;;;;;;;39.25;15.32;;;;;;;8.76;100.00;102673.78;4997523;28;20257;-75
2021/11/09 09:59:51;;;;;;;36.92;13.93;;;;;;;8.78;100.00;102680.00;4991462;28;20060;-68
2021/11/09 10:02:22;;;;;;;43.20;15.23;;;;;;;8.77;100.00;102672.91;4990724;28;20095;-68
2021/11/09 10:04:54;;;;;;;37.42;13.13;;;;;;;8.87;100.00;102671.16;4995804;28;20054;-68
2021/11/09 10:07:29;;;;;;;35.78;13.73;;;;;;;8.94;100.00;102662.34;4993242;28;20556;-68
2021/11/09 10:09:59;;;;;;;39.55;14.98;;;;;;;8.94;100.00;102660.56;4997838;28;20442;-75
2021/11/09 10:12:32;;;;;;;33.08;13.90;;;;;;;8.94;100.00;102673.88;4991729;28;20525;-75
2021/11/09 10:15:05;;;;;;;45.42;14.52;;;;;;;8.95;100.00;102675.63;4991935;28;20056;-75
2021/11/09 10:17:34;;;;;;;38.17;14.13;;;;;;;9.03;100.00;102677.47;4995609;28;20060;-68
2021/11/09 10:20:12;;;;;;;34.60;13.90;;;;;;;9.02;100.00;102675.66;4988312;28;20369;-68
2021/11/09 10:22:43;;;;;;;32.17;14.07;;;;;;;8.97;100.00;102675.63;4989148;28;20112;-68
2021/11/09 10:25:15;;;;;;;31.55;12.73;;;;;;;9.03;100.00;102670.34;4997735;28;20484;-68
2021/11/09 10:27:46;;;;;;;31.52;12.93;;;;;;;9.03;100.00;102665.03;4987910;28;20061;-69
2021/11/09 10:30:17;;;;;;;35.05;14.10;;;;;;;9.14;100.00;102662.38;4996364;28;20178;-68
2021/11/09 10:32:46;;;;;;;36.08;13.70;;;;;;;9.17;100.00;102662.41;4988105;28;20049;-74
2021/11/09 10:35:18;;;;;;;36.55;11.95;;;;;;;9.18;100.00;102668.59;4994760;28;20735;-75
2021/11/09 10:37:48;;;;;;;42.58;14.63;;;;;;;9.18;100.00;102666.84;4989959;28;20149;-76
2021/11/09 10:40:21;;;;;;;37.90;13.90;;;;;;;9.14;100.00;102665.03;4990494;28;20042;-75
2021/11/09 10:42:51;;;;;;;38.47;14.95;;;;;;;9.14;100.00;102659.72;4994769;28;20444;-75
2021/11/09 10:45:22;;;;;;;38.35;14.80;;;;;;;9.19;100.00;102665.06;4974612;28;20071;-75
2021/11/09 10:47:53;;;;;;;41.75;14.40;;;;;;;9.15;100.00;102658.84;4998002;28;20096;-76
2021/11/09 10:50:24;;;;;;;45.65;15.07;;;;;;;9.26;100.00;102665.09;4988968;28;20066;-76
2021/11/09 10:53:09;;;;;;;42.50;16.08;;;;;;;9.28;100.00;102667.75;4995609;28;20050;-76
2021/11/09 10:55:42;;;;;;;42.88;14.48;;;;;;;9.23;100.00;102659.75;4990368;28;20141;-76
2021/11/09 10:58:23;;;;;;;52.45;16.40;;;;;;;9.22;100.00;102665.97;4990149;28;20528;-76
2021/11/09 11:06:42;;;;;;;33.88;13.40;;;;;;;9.19;100.00;102673.94;4974543;28;20046;-74
2021/11/09 11:09:19;;;;;;;44.10;13.95;;;;;;;9.18;100.00;102671.25;4998083;28;20056;-75
2021/11/09 11:12:09;;;;;;;31.63;11.88;;;;;;;9.10;100.00;102672.13;4990596;28;20136;-75
2021/11/09 11:14:40;;;;;;;31.35;12.88;;;;;;;9.05;100.00;102675.69;4991582;28;20050;-75
2021/11/09 11:17:10;;;;;;;41.03;15.63;;;;;;;9.10;100.00;102668.59;4996136;28;20410;-75
2021/11/09 11:19:42;;;;;;;39.13;13.75;;;;;;;9.08;100.00;102665.94;4991759;28;20494;-76
2021/11/09 11:22:13;;;;;;;38.13;13.82;;;;;;;9.07;100.00;102663.25;4997375;28;20160;-75
2021/11/09 11:24:43;;;;;;;52.20;16.00;;;;;;;9.05;100.00;102660.59;4992950;28;20050;-75
2021/11/09 11:27:12;;;;;;;45.90;16.88;;;;;;;9.03;100.00;102661.47;4997101;28;20049;-75
2021/11/09 11:29:41;;;;;;;48.50;16.42;;;;;;;9.01;100.00;102658.81;4991531;28;20120;-75
2021/11/09 11:32:11;;;;;;;37.85;14.88;;;;;;;8.96;100.00;102663.22;4989360;28;20149;-75
2021/11/09 11:34:40;;;;;;;48.97;15.93;;;;;;;8.90;100.00;102658.75;4996648;28;20089;-75
2021/11/09 11:37:11;;;;;;;41.58;15.23;;;;;;;9.03;100.00;102664.16;4991540;28;20406;-75
2021/11/09 11:39:41;;;;;;;39.38;14.60;;;;;;;9.01;100.00;102661.47;4998618;28;20462;-75
2021/11/09 11:42:12;;;;;;;44.25;15.63;;;;;;;8.94;100.00;102660.56;4989591;28;20057;-75
2021/11/09 11:44:42;;;;;;;39.88;14.90;;;;;;;8.97;100.00;102655.25;4989929;28;20073;-75
2021/11/09 11:47:17;;;;;;;42.03;15.07;;;;;;;9.07;100.00;102655.25;4999150;28;20058;-74
2021/11/09 11:49:53;;;;;;;42.00;16.38;;;;;;;9.07;100.00;102655.25;4992001;28;20064;-75
2021/11/09 11:52:27;;;;;;;42.03;15.70;;;;;;;9.11;100.00;102649.09;4993564;28;20541;-75
2021/11/09 11:55:03;;;;;;;30.33;14.43;;;;;;;9.09;100.00;102651.75;4990618;28;20124;-75
2021/11/09 11:57:42;;;;;;;35.50;14.52;;;;;;;9.15;100.00;102641.09;4998363;28;20119;-75
2021/11/09 12:00:43;;;;;;;36.08;14.48;;;;;;;9.14;100.00;102639.31;4997771;28;20052;-68
2021/11/09 12:03:37;;;;;;;38.00;16.23;;;;;;;9.24;100.00;102636.66;4989062;28;20056;-68
2021/11/09 12:06:26;;;;;;;39.75;15.88;;;;;;;9.07;100.00;102633.97;4988480;28;20058;-68
2021/11/09 12:08:58;;;;;;;38.28;15.80;;;;;;;9.03;100.00;102635.72;4997006;28;20192;-68
2021/11/09 12:11:42;;;;;;;35.97;14.00;;;;;;;9.14;100.00;102634.00;4990833;28;20505;-68
2021/11/09 12:14:15;;;;;;;39.60;15.80;;;;;;;9.12;100.00;102624.22;4997919;28;20053;-68
2021/11/09 12:16:56;;;;;;;42.42;16.65;;;;;;;9.19;100.00;102627.78;4991252;28;20075;-68
2021/11/09 12:19:58;;;;;;;39.03;15.90;;;;;;;9.23;100.00;102622.47;4987191;28;20060;-68
2021/11/09 12:22:42;;;;;;;37.22;16.10;;;;;;;9.22;100.00;102626.00;4994350;28;20572;-70
2021/11/09 12:25:14;;;;;;;41.10;16.90;;;;;;;9.21;100.00;102618.00;4987351;28;20042;-68
2021/11/09 12:28:03;;;;;;;41.40;15.80;;;;;;;9.09;100.00;102618.88;4986748;28;20479;-75
2021/11/09 12:30:46;;;;;;;41.78;14.50;;;;;;;9.18;100.00;102620.66;4996663;28;20054;-77
2021/11/09 12:33:16;;;;;;;48.92;17.48;;;;;;;9.19;100.00;102622.44;4988388;28;20046;-77
2021/11/09 12:36:26;;;;;;;45.70;16.00;;;;;;;9.24;100.00;102618.91;4995046;28;20494;-78
2021/11/09 12:38:56;;;;;;;50.08;18.05;;;;;;;9.12;100.00;102614.44;4995476;28;21829;-76
2021/11/09 12:41:29;;;;;;;46.05;18.40;;;;;;;9.26;100.00;102605.59;4991397;28;20063;-76
2021/11/09 12:43:59;;;;;;;50.80;18.80;;;;;;;9.27;100.00;102604.72;4996584;28;20066;-77
2021/11/09 12:46:30;;;;;;;51.88;19.27;;;;;;;9.15;100.00;102597.59;4992267;28;20054;-76
2021/11/09 12:49:03;;;;;;;57.88;19.38;;;;;;;9.25;100.00;102598.50;4992696;28;20514;-75
2021/11/09 12:51:35;;;;;;;57.85;19.88;;;;;;;9.14;100.00;102606.44;4995551;28;20223;-75
2021/11/09 12:54:06;;;;;;;59.53;18.10;;;;;;;9.23;100.00;102602.91;4988584;28;20090;-75
2021/11/09 12:56:39;;;;;;;63.15;20.40;;;;;;;9.21;100.00;102591.38;5000288;28;20061;-75
2021/11/09 12:59:11;;;;;;;58.30;19.20;;;;;;;9.22;100.00;102595.81;4995724;28;20398;-75
2021/11/09 13:04:28;;;;;;;51.50;19.33;;;;;;;9.24;100.00;102596.72;4994374;28;20482;-75
2021/11/09 13:07:08;;;;;;;57.17;17.25;;;;;;;9.23;100.00;102589.59;4993605;28;20572;-75
2021/11/09 13:09:43;;;;;;;58.42;16.73;;;;;;;9.33;100.00;102583.38;5000140;28;20061;-69
2021/11/09 13:12:15;;;;;;;50.78;16.83;;;;;;;9.29;100.00;102590.50;4994424;28;20076;-68